Cushman, Arkansas
Current Conditions -  °F | °C
As of 4:15 PM on Sunday 25 Jan 2015 (Local Time) from KBVX Reporting Station
Overcast Overcast  
Wind Chill: 39°   Ceiling: 3000
Heat Index: 46°   Visibility: 10mi
Dew Point: 32°   Wind: 20mph
Humidity: 57%   Direction: 280°W
Pressure: 29.81"   Gusts: 33mph
Location:  35.87°N, 91.75°W
Report Text: KBVX 252215Z AUTO 28017G29KT 10SM OVC030 08/00 A2981 RMK AO1
Loading
Personal Weather Stations






























Interactive Weather Map New forecast layout! Learn more

10-Day Weather Forecast

Advertisements
Track Severe Weather on mobile